createdAt,value
2023-04-18T00:01:12.315Z,7.45
2023-04-18T00:03:46.100Z,7.97
2023-04-18T00:06:13.899Z,8.10
2023-04-18T00:08:40.872Z,9.15
2023-04-18T00:11:07.806Z,7.47
2023-04-18T00:13:35.445Z,7.65
2023-04-18T00:16:02.604Z,7.30
2023-04-18T00:18:29.675Z,7.18
2023-04-18T00:20:56.900Z,7.10
2023-04-18T00:23:28.166Z,8.68
2023-04-18T00:25:54.987Z,8.27
2023-04-18T00:28:22.180Z,8.48
2023-04-18T00:30:49.123Z,7.20
2023-04-18T00:33:16.356Z,9.05
2023-04-18T00:35:43.083Z,8.05
2023-04-18T00:38:10.495Z,8.02
2023-04-18T00:40:37.899Z,7.10
2023-04-18T00:43:07.529Z,7.55
2023-04-18T00:45:34.353Z,7.63
2023-04-18T00:48:02.045Z,7.60
2023-04-18T00:50:28.991Z,7.82
2023-04-18T00:52:56.522Z,7.05
2023-04-18T00:55:24.372Z,6.80
2023-04-18T00:57:52.166Z,7.15
2023-04-18T01:00:19.018Z,6.80
2023-04-18T01:02:48.051Z,6.78
2023-04-18T01:05:14.948Z,6.00
2023-04-18T01:07:42.947Z,7.18
2023-04-18T01:10:10.723Z,8.48
2023-04-18T01:12:37.961Z,7.28
2023-04-18T01:15:05.762Z,8.02
2023-04-18T01:17:34.789Z,6.93
2023-04-18T01:20:02.164Z,7.82
2023-04-18T01:22:31.852Z,6.00
2023-04-18T01:24:58.711Z,5.80
2023-04-18T01:27:26.132Z,6.97
2023-04-18T01:29:52.907Z,6.78
2023-04-18T01:32:28.314Z,6.80
2023-04-18T01:34:55.099Z,7.47
2023-04-18T01:37:22.097Z,8.38
2023-04-18T01:39:48.966Z,6.57
2023-04-18T01:42:16.412Z,6.45
2023-04-18T01:44:43.349Z,7.88
2023-04-18T01:47:10.335Z,7.70
2023-04-18T01:49:37.118Z,6.05
2023-04-18T01:52:04.129Z,8.82
2023-04-18T01:54:30.886Z,7.28
2023-04-18T01:56:57.981Z,5.97
2023-04-18T01:59:24.666Z,5.63
2023-04-18T02:01:52.007Z,6.05
2023-04-18T02:04:18.985Z,5.90
2023-04-18T02:06:46.058Z,5.53
2023-04-18T02:09:12.889Z,6.78
2023-04-18T02:11:39.831Z,6.03
2023-04-18T02:14:06.799Z,5.47
2023-04-18T02:16:35.145Z,5.90
2023-04-18T02:19:04.383Z,8.18
2023-04-18T02:21:31.431Z,5.25
2023-04-18T02:23:58.194Z,5.72
2023-04-18T02:26:25.315Z,6.40
2023-04-18T02:28:52.127Z,5.78
2023-04-18T02:31:19.231Z,8.55
2023-04-18T02:33:47.446Z,8.07
2023-04-18T02:36:14.582Z,6.32
2023-04-18T02:38:41.284Z,7.35
2023-04-18T02:41:08.429Z,6.43
2023-04-18T02:43:35.240Z,5.85
2023-04-18T02:46:02.307Z,5.32
2023-04-18T02:48:29.104Z,7.15
2023-04-18T02:51:04.239Z,6.57
2023-04-18T02:53:31.274Z,5.32
2023-04-18T02:55:58.631Z,9.05
2023-04-18T02:58:25.674Z,7.10
2023-04-18T03:00:56.314Z,7.78
2023-04-18T03:03:23.141Z,6.78
2023-04-18T03:05:50.286Z,8.35
2023-04-18T03:08:17.113Z,8.65
2023-04-18T03:10:44.098Z,9.43
2023-04-18T03:13:10.897Z,12.10
2023-04-18T03:15:38.076Z,12.63
2023-04-18T03:18:06.146Z,10.55
2023-04-18T03:20:33.158Z,9.95
2023-04-18T03:23:00.040Z,12.02
2023-04-18T03:25:29.632Z,10.50
2023-04-18T03:27:56.480Z,12.68
2023-04-18T03:30:23.539Z,13.50
2023-04-18T03:32:50.339Z,9.52
2023-04-18T03:35:17.613Z,11.52
2023-04-18T03:37:44.561Z,11.75
2023-04-18T03:40:11.935Z,13.18
2023-04-18T03:42:38.698Z,13.18
2023-04-18T03:45:06.473Z,12.65
2023-04-18T03:47:33.704Z,13.32
2023-04-18T03:50:00.731Z,18.45
2023-04-18T03:52:29.637Z,14.13
2023-04-18T03:54:56.895Z,15.82
2023-04-18T03:57:23.838Z,16.85
2023-04-18T03:59:51.240Z,16.23
2023-04-18T04:02:18.083Z,15.13
2023-04-18T04:04:45.508Z,15.80
2023-04-18T04:07:12.850Z,18.02
2023-04-18T04:09:42.828Z,17.70
2023-04-18T04:12:09.590Z,17.92
2023-04-18T04:14:36.519Z,17.55
2023-04-18T04:17:03.385Z,18.42
2023-04-18T04:19:30.397Z,15.43
2023-04-18T04:21:57.054Z,18.90
2023-04-18T04:24:23.985Z,18.42
2023-04-18T04:26:50.912Z,17.15
2023-04-18T04:29:18.990Z,19.05
2023-04-18T04:31:46.435Z,17.13
2023-04-18T04:34:13.960Z,17.67
2023-04-18T04:36:41.308Z,20.92
2023-04-18T04:39:08.684Z,22.45
2023-04-18T04:41:37.705Z,24.25
2023-04-18T04:44:05.008Z,18.75
2023-04-18T04:46:31.983Z,18.88
2023-04-18T04:48:58.956Z,20.92
2023-04-18T04:51:26.218Z,16.33
2023-04-18T04:53:53.293Z,22.42
2023-04-18T04:56:20.238Z,17.90
2023-04-18T04:58:47.463Z,21.60
2023-04-18T05:01:14.333Z,21.92
2023-04-18T05:03:41.491Z,17.65
2023-04-18T05:06:08.654Z,22.95
2023-04-18T05:08:35.736Z,20.25
2023-04-18T05:11:02.714Z,20.50
2023-04-18T05:13:29.921Z,18.83
2023-04-18T05:15:56.869Z,19.63
2023-04-18T05:18:23.950Z,17.30
2023-04-18T05:20:50.699Z,20.45
2023-04-18T05:23:17.762Z,23.05
2023-04-18T05:25:44.608Z,21.50
2023-04-18T05:28:11.678Z,23.70
2023-04-18T05:30:39.968Z,18.45
2023-04-18T05:33:07.265Z,21.50
2023-04-18T05:35:34.310Z,19.15
2023-04-18T05:38:01.414Z,22.10
2023-04-18T05:40:30.020Z,21.55
2023-04-18T05:42:57.061Z,18.50
2023-04-18T05:45:23.897Z,24.55
2023-04-18T05:47:53.994Z,17.63
2023-04-18T05:50:21.034Z,21.60
2023-04-18T05:52:48.728Z,19.00
2023-04-18T05:55:15.594Z,20.90
2023-04-18T05:57:42.614Z,18.15
2023-04-18T06:00:12.938Z,20.80
2023-04-18T06:02:40.265Z,22.23
2023-04-18T06:05:08.139Z,18.73
2023-04-18T06:07:35.814Z,22.15
2023-04-18T06:10:02.666Z,19.73
2023-04-18T06:12:29.795Z,19.52
2023-04-18T06:14:56.568Z,20.33
2023-04-18T06:17:23.642Z,21.55
2023-04-18T06:19:50.764Z,18.02
2023-04-18T06:22:17.861Z,16.63
2023-04-18T06:24:44.926Z,18.52
2023-04-18T06:27:24.182Z,16.25
2023-04-18T06:29:54.951Z,19.48
2023-04-18T06:32:22.280Z,17.52
2023-04-18T06:34:49.164Z,18.20
2023-04-18T06:37:16.787Z,16.25
2023-04-18T06:39:43.658Z,15.95
2023-04-18T06:42:10.702Z,15.73
2023-04-18T06:44:37.647Z,15.98
2023-04-18T06:47:05.028Z,14.68
2023-04-18T06:49:31.911Z,13.57
2023-04-18T06:51:59.064Z,17.85
2023-04-18T06:54:26.026Z,15.98
2023-04-18T06:56:53.857Z,15.05
2023-04-18T06:59:21.720Z,18.52
2023-04-18T07:01:49.055Z,14.15
2023-04-18T07:04:16.170Z,16.52
2023-04-18T07:06:43.699Z,14.77
2023-04-18T07:09:10.459Z,15.65
2023-04-18T07:11:39.153Z,15.65
2023-04-18T07:14:06.041Z,15.15
2023-04-18T07:16:33.193Z,14.90
2023-04-18T07:18:59.958Z,15.57
2023-04-18T07:21:27.488Z,15.27
2023-04-18T07:23:54.330Z,14.65
2023-04-18T07:26:21.778Z,15.57
2023-04-18T07:28:49.305Z,13.75
2023-04-18T07:31:16.722Z,13.43
2023-04-18T07:33:43.887Z,17.35
2023-04-18T07:36:11.150Z,13.63
2023-04-18T07:38:38.104Z,15.32
2023-04-18T07:41:05.121Z,14.82
2023-04-18T07:43:31.940Z,14.25
2023-04-18T07:45:59.090Z,14.27
2023-04-18T07:48:29.801Z,13.45
2023-04-18T07:50:56.880Z,12.80
2023-04-18T07:53:23.708Z,14.30
2023-04-18T07:55:50.813Z,14.00
2023-04-18T07:58:17.833Z,16.55
2023-04-18T08:00:45.123Z,14.75
2023-04-18T08:03:12.826Z,13.02
2023-04-18T08:05:41.430Z,13.85
2023-04-18T08:08:09.554Z,12.55
2023-04-18T08:10:37.196Z,13.98
2023-04-18T08:13:04.609Z,15.85
2023-04-18T08:15:32.868Z,12.35
2023-04-18T08:18:00.744Z,13.90
2023-04-18T08:20:28.163Z,12.40
2023-04-18T08:25:42.441Z,12.00
2023-04-18T08:28:09.302Z,14.55
2023-04-18T08:30:36.616Z,14.05
2023-04-18T08:33:03.664Z,14.13
2023-04-18T08:35:30.728Z,14.88
2023-04-18T08:37:57.620Z,16.15
2023-04-18T08:40:24.728Z,11.98
2023-04-18T08:42:53.198Z,12.45
2023-04-18T08:45:20.971Z,13.50
2023-04-18T08:47:47.809Z,11.60
2023-04-18T08:50:15.116Z,13.63
2023-04-18T08:52:48.193Z,11.88
2023-04-18T08:55:16.278Z,10.40
2023-04-18T08:57:44.084Z,12.30
2023-04-18T09:00:17.055Z,10.27
2023-04-18T09:03:07.171Z,12.90
2023-04-18T09:06:21.965Z,11.00
2023-04-18T09:09:12.899Z,11.18
2023-04-18T09:12:08.472Z,10.75
2023-04-18T09:14:42.917Z,13.50
2023-04-18T09:17:13.498Z,11.88
2023-04-18T09:19:49.009Z,11.57
2023-04-18T09:22:17.548Z,11.52
2023-04-18T09:24:57.313Z,9.75
2023-04-18T09:27:25.035Z,12.40
2023-04-18T09:29:56.480Z,10.35
2023-04-18T09:32:26.999Z,9.32
2023-04-18T09:34:58.205Z,10.25
2023-04-18T09:37:26.570Z,9.50
2023-04-18T09:39:53.645Z,10.40
2023-04-18T09:42:21.741Z,11.77
2023-04-18T09:45:27.366Z,9.75
2023-04-18T09:47:55.824Z,9.95
2023-04-18T09:50:22.731Z,11.10
2023-04-18T09:52:50.096Z,10.82
2023-04-18T09:55:18.661Z,10.57
2023-04-18T09:57:47.898Z,10.30
2023-04-18T10:00:46.899Z,9.75
2023-04-18T10:03:17.356Z,10.15
2023-04-18T10:05:45.775Z,10.55
2023-04-18T10:08:17.006Z,9.48
2023-04-18T10:10:43.887Z,9.60
2023-04-18T10:13:13.924Z,10.70
2023-04-18T10:15:43.649Z,9.52
2023-04-18T10:18:16.351Z,9.88
2023-04-18T10:20:44.581Z,10.00
2023-04-18T10:23:34.796Z,11.10
2023-04-18T10:28:55.201Z,8.38
2023-04-18T10:31:23.674Z,9.45
2023-04-18T10:34:04.701Z,9.68
2023-04-18T10:37:04.510Z,13.27
2023-04-18T10:39:58.288Z,9.23
2023-04-18T10:43:03.816Z,10.75
2023-04-18T10:45:32.645Z,10.05
2023-04-18T10:48:32.723Z,9.93
2023-04-18T10:51:16.315Z,10.10
2023-04-18T10:53:50.987Z,6.90
2023-04-18T10:56:18.147Z,7.88
2023-04-18T10:58:51.266Z,13.05
2023-04-18T11:01:32.468Z,7.30
2023-04-18T11:04:00.904Z,9.95
2023-04-18T11:06:34.199Z,10.98
2023-04-18T11:09:11.772Z,11.30
2023-04-18T11:11:39.029Z,8.38
2023-04-18T11:14:06.031Z,7.53
2023-04-18T11:16:34.359Z,8.95
2023-04-18T11:19:01.390Z,7.70
2023-04-18T11:21:30.784Z,6.88
2023-04-18T11:23:58.491Z,8.90
2023-04-18T11:26:27.365Z,8.10
2023-04-18T11:28:57.666Z,8.27
2023-04-18T11:31:25.259Z,8.20
2023-04-18T11:33:52.624Z,6.88
2023-04-18T11:36:19.738Z,9.85
2023-04-18T11:38:46.974Z,9.77
2023-04-18T11:41:15.256Z,5.90
2023-04-18T11:43:44.889Z,7.88
2023-04-18T11:46:13.644Z,6.90
2023-04-18T11:48:42.581Z,7.60
2023-04-18T11:51:32.397Z,6.18
2023-04-18T11:53:59.165Z,6.35
2023-04-18T11:56:26.245Z,8.15
2023-04-18T11:58:53.180Z,7.30
2023-04-18T12:01:25.238Z,6.65
2023-04-18T12:04:07.020Z,6.70
2023-04-18T12:09:19.627Z,4.93
2023-04-18T12:12:22.227Z,9.60
2023-04-18T12:14:50.952Z,5.95
2023-04-18T12:17:18.049Z,5.88
2023-04-18T12:19:49.684Z,7.20
2023-04-18T12:22:16.976Z,6.30
2023-04-18T12:24:43.981Z,8.73
2023-04-18T12:27:12.212Z,8.48
2023-04-18T12:29:39.766Z,6.65
2023-04-18T12:32:06.763Z,6.75
2023-04-18T12:34:33.597Z,7.28
2023-04-18T12:37:01.130Z,8.32
2023-04-18T12:39:27.965Z,7.22
2023-04-18T12:41:55.059Z,8.77
2023-04-18T12:44:22.733Z,7.20
2023-04-18T12:46:49.831Z,9.63
2023-04-18T12:49:16.680Z,8.30
2023-04-18T12:51:43.716Z,10.48
2023-04-18T12:54:10.576Z,8.68
2023-04-18T12:56:37.592Z,7.80
2023-04-18T12:59:04.444Z,6.90
2023-04-18T13:01:31.595Z,9.50
2023-04-18T13:04:10.919Z,7.95
2023-04-18T13:06:40.456Z,9.05
2023-04-18T13:09:08.162Z,8.25
2023-04-18T13:11:35.219Z,7.53
2023-04-18T13:14:02.244Z,8.93
2023-04-18T13:16:29.638Z,7.22
2023-04-18T13:18:56.602Z,7.78
2023-04-18T13:21:25.221Z,7.80
2023-04-18T13:23:52.077Z,7.40
2023-04-18T13:26:19.675Z,7.97
2023-04-18T13:28:46.769Z,8.05
2023-04-18T13:31:16.323Z,7.35
2023-04-18T13:33:43.749Z,8.77
2023-04-18T13:36:10.901Z,6.50
2023-04-18T13:38:38.005Z,6.38
2023-04-18T13:41:12.389Z,6.90
2023-04-18T13:43:39.842Z,6.97
2023-04-18T13:46:07.083Z,7.15
2023-04-18T13:48:34.036Z,6.60
2023-04-18T13:51:01.433Z,6.93
2023-04-18T13:53:30.228Z,8.10
2023-04-18T13:55:58.164Z,8.15
2023-04-18T13:58:24.961Z,6.85
2023-04-18T14:00:52.113Z,7.25
2023-04-18T14:03:19.224Z,6.32
2023-04-18T14:05:47.153Z,5.32
2023-04-18T14:08:14.495Z,8.75
2023-04-18T14:10:41.820Z,7.30
2023-04-18T14:13:08.624Z,7.97
2023-04-18T14:15:35.670Z,7.40
2023-04-18T14:18:02.492Z,6.13
2023-04-18T14:20:34.931Z,7.30
2023-04-18T14:23:06.717Z,7.75
2023-04-18T14:25:50.552Z,7.65
2023-04-18T14:28:44.638Z,6.40
2023-04-18T14:34:27.986Z,7.85
2023-04-18T14:36:55.224Z,7.10
2023-04-18T14:39:22.007Z,8.35
2023-04-18T14:41:49.144Z,6.60
2023-04-18T14:44:17.344Z,5.53
2023-04-18T14:46:44.496Z,7.53
2023-04-18T14:49:11.518Z,7.15
2023-04-18T14:51:38.937Z,6.68
2023-04-18T14:54:05.746Z,6.30
2023-04-18T14:56:32.760Z,7.13
2023-04-18T14:58:59.825Z,6.68
2023-04-18T15:01:27.657Z,9.30
2023-04-18T15:03:54.617Z,8.52
2023-04-18T15:06:23.216Z,6.57
2023-04-18T15:08:50.306Z,8.27
2023-04-18T15:11:17.515Z,6.38
2023-04-18T15:13:45.027Z,6.85
2023-04-18T15:16:12.607Z,6.32
2023-04-18T15:18:39.334Z,8.32
2023-04-18T15:21:06.442Z,6.57
2023-04-18T15:23:34.231Z,9.07
2023-04-18T15:26:01.373Z,7.50
2023-04-18T15:28:28.326Z,8.05
2023-04-18T15:30:55.347Z,7.13
2023-04-18T15:33:25.243Z,7.18
2023-04-18T15:35:52.614Z,7.53
2023-04-18T15:38:19.565Z,6.90
2023-04-18T15:40:49.442Z,7.32
2023-04-18T15:43:19.326Z,8.10
2023-04-18T15:45:47.298Z,7.70
2023-04-18T15:48:14.091Z,8.07
2023-04-18T15:50:42.547Z,7.53
2023-04-18T15:53:10.219Z,9.90
2023-04-18T15:55:37.810Z,8.63
2023-04-18T15:58:05.135Z,9.82
2023-04-18T16:00:32.377Z,9.60
2023-04-18T16:02:59.250Z,9.45
2023-04-18T16:05:26.546Z,9.30
2023-04-18T16:07:53.907Z,9.18
2023-04-18T16:10:20.974Z,12.13
2023-04-18T16:12:47.950Z,12.05
2023-04-18T16:15:15.086Z,9.43
2023-04-18T16:17:41.882Z,11.30
2023-04-18T16:20:09.422Z,10.40
2023-04-18T16:22:36.905Z,12.50
2023-04-18T16:25:04.597Z,11.32
2023-04-18T16:27:32.552Z,10.07
2023-04-18T16:29:59.775Z,10.88
2023-04-18T16:32:26.680Z,10.68
2023-04-18T16:34:53.912Z,10.45
2023-04-18T16:37:23.603Z,10.43
2023-04-18T16:39:53.477Z,13.10
2023-04-18T16:42:31.078Z,9.82
2023-04-18T16:45:09.968Z,10.57
2023-04-18T16:47:36.932Z,11.05
2023-04-18T16:50:04.330Z,12.98
2023-04-18T16:52:31.384Z,12.30
2023-04-18T16:54:58.568Z,12.48
2023-04-18T16:57:26.389Z,12.70
2023-04-18T16:59:53.509Z,10.07
2023-04-18T17:02:20.418Z,12.13
2023-04-18T17:04:48.211Z,10.57
2023-04-18T17:07:15.052Z,13.80
2023-04-18T17:09:42.153Z,12.48
2023-04-18T17:12:08.939Z,10.73
2023-04-18T17:14:37.195Z,9.68
2023-04-18T17:17:04.321Z,10.98
2023-04-18T17:19:31.446Z,10.38
2023-04-18T17:21:58.235Z,11.70
2023-04-18T17:24:25.330Z,13.65
2023-04-18T17:26:52.150Z,11.13
2023-04-18T17:29:19.212Z,13.02
2023-04-18T17:31:46.379Z,10.52
2023-04-18T17:34:13.464Z,10.95
2023-04-18T17:36:40.601Z,11.43
2023-04-18T17:39:08.138Z,11.10
2023-04-18T17:41:37.559Z,10.48
2023-04-18T17:44:13.814Z,12.88
2023-04-18T17:46:40.969Z,12.15
2023-04-18T17:49:08.151Z,12.82
2023-04-18T17:51:35.038Z,9.45
2023-04-18T17:54:04.306Z,11.52
2023-04-18T17:56:31.498Z,13.27
2023-04-18T17:58:58.620Z,11.07
2023-04-18T18:01:26.344Z,10.10
2023-04-18T18:03:53.913Z,11.25
2023-04-18T18:06:21.154Z,13.23
2023-04-18T18:08:48.662Z,11.75
2023-04-18T18:11:16.251Z,14.93
2023-04-18T18:13:43.264Z,13.32
2023-04-18T18:16:10.240Z,10.13
2023-04-18T18:18:38.199Z,11.13
2023-04-18T18:21:05.004Z,12.43
2023-04-18T18:23:32.286Z,14.48
2023-04-18T18:25:59.022Z,12.65
2023-04-18T18:28:26.369Z,13.48
2023-04-18T18:30:54.006Z,12.43
2023-04-18T18:33:21.203Z,13.68
2023-04-18T18:35:48.835Z,13.73
2023-04-18T18:38:16.523Z,14.55
2023-04-18T18:40:43.381Z,14.07
2023-04-18T18:43:11.117Z,16.40
2023-04-18T18:45:38.762Z,13.30
2023-04-18T18:48:10.125Z,17.13
2023-04-18T18:53:06.218Z,14.77
2023-04-18T18:55:33.172Z,16.65
2023-04-18T18:58:01.475Z,13.68
2023-04-18T19:00:28.534Z,15.68
2023-04-18T19:02:55.760Z,14.68
2023-04-18T19:05:22.997Z,16.70
2023-04-18T19:07:51.568Z,17.10
2023-04-18T19:10:18.519Z,16.92
2023-04-18T19:12:45.710Z,17.38
2023-04-18T19:15:12.745Z,17.35
2023-04-18T19:17:39.800Z,16.70
2023-04-18T19:20:07.520Z,18.77
2023-04-18T19:22:34.567Z,18.90
2023-04-18T19:25:01.518Z,19.48
2023-04-18T19:27:28.633Z,20.65
2023-04-18T19:29:55.445Z,18.75
2023-04-18T19:32:22.707Z,21.38
2023-04-18T19:34:51.229Z,21.45
2023-04-18T19:37:18.441Z,22.55
2023-04-18T19:39:45.312Z,20.08
2023-04-18T19:42:12.491Z,20.10
2023-04-18T19:44:39.409Z,23.98
2023-04-18T19:47:06.519Z,24.05
2023-04-18T19:49:33.341Z,24.52
2023-04-18T19:52:00.696Z,20.40
2023-04-18T19:54:27.583Z,20.60
2023-04-18T19:56:54.726Z,22.70
2023-04-18T19:59:21.527Z,22.88
2023-04-18T20:01:48.587Z,22.88
2023-04-18T20:04:15.567Z,25.25
2023-04-18T20:06:42.724Z,23.30
2023-04-18T20:09:15.482Z,27.45
2023-04-18T20:11:43.433Z,27.13
2023-04-18T20:14:10.648Z,23.15
2023-04-18T20:16:38.988Z,24.80
2023-04-18T20:19:05.905Z,26.15
2023-04-18T20:21:33.050Z,25.13
2023-04-18T20:23:59.837Z,27.70
2023-04-18T20:26:26.846Z,28.48
2023-04-18T20:28:53.570Z,29.20
2023-04-18T20:31:20.879Z,30.15
2023-04-18T20:33:47.724Z,30.55
2023-04-18T20:36:17.674Z,32.65
2023-04-18T20:38:44.722Z,37.67
2023-04-18T20:41:15.199Z,36.90
2023-04-18T20:43:43.275Z,36.70
2023-04-18T20:46:14.083Z,39.55
2023-04-18T20:48:41.210Z,36.55
2023-04-18T20:51:08.373Z,34.65
2023-04-18T20:53:35.373Z,32.20
2023-04-18T20:56:03.106Z,33.22
2023-04-18T20:58:30.301Z,38.42
2023-04-18T21:00:57.458Z,36.67
2023-04-18T21:03:24.375Z,35.10
2023-04-18T21:05:52.497Z,34.45
2023-04-18T21:08:19.485Z,39.67
2023-04-18T21:10:46.871Z,33.47
2023-04-18T21:13:13.691Z,37.80
2023-04-18T21:15:42.503Z,36.72
2023-04-18T21:18:09.532Z,32.17
2023-04-18T21:20:37.260Z,31.88
2023-04-18T21:23:04.129Z,34.10
2023-04-18T21:25:31.172Z,33.55
2023-04-18T21:27:58.076Z,31.60
2023-04-18T21:30:25.164Z,30.27
2023-04-18T21:32:51.980Z,29.38
2023-04-18T21:35:20.763Z,30.48
2023-04-18T21:37:52.766Z,34.08
2023-04-18T21:40:19.979Z,30.27
2023-04-18T21:42:48.648Z,32.85
2023-04-18T21:45:17.710Z,33.83
2023-04-18T21:47:44.582Z,30.20
2023-04-18T21:50:11.790Z,29.30
2023-04-18T21:52:38.625Z,32.33
2023-04-18T21:55:06.233Z,36.15
2023-04-18T21:57:33.012Z,36.83
2023-04-18T22:00:00.069Z,30.92
2023-04-18T22:02:27.464Z,33.45
2023-04-18T22:04:54.642Z,34.70
2023-04-18T22:07:21.603Z,32.60
2023-04-18T22:09:48.812Z,34.55
2023-04-18T22:12:15.808Z,34.72
2023-04-18T22:14:48.190Z,31.98
2023-04-18T22:17:17.026Z,35.33
2023-04-18T22:19:44.788Z,32.88
2023-04-18T22:22:11.939Z,33.75
2023-04-18T22:24:39.014Z,33.70
2023-04-18T22:27:05.945Z,34.05
2023-04-18T22:29:33.358Z,34.95
2023-04-18T22:32:00.218Z,31.08
2023-04-18T22:34:27.278Z,34.88
2023-04-18T22:36:54.052Z,37.92
2023-04-18T22:39:21.200Z,33.33
2023-04-18T22:41:47.931Z,34.35
2023-04-18T22:44:15.373Z,31.13
2023-04-18T22:46:42.662Z,30.60
2023-04-18T22:49:09.740Z,35.85
2023-04-18T22:51:36.530Z,29.92
2023-04-18T22:54:03.665Z,28.98
2023-04-18T22:56:30.543Z,31.13
2023-04-18T22:58:57.523Z,29.80
2023-04-18T23:01:24.294Z,29.42
2023-04-18T23:03:51.596Z,29.50
2023-04-18T23:06:18.700Z,30.80
2023-04-18T23:08:46.072Z,32.28
2023-04-18T23:11:13.633Z,35.33
2023-04-18T23:13:40.746Z,28.52
2023-04-18T23:16:08.170Z,29.45
2023-04-18T23:18:35.304Z,27.48
2023-04-18T23:21:10.402Z,29.52
2023-04-18T23:23:37.373Z,26.88
2023-04-18T23:26:11.102Z,30.45
2023-04-18T23:28:38.144Z,26.40
2023-04-18T23:31:04.974Z,32.22
2023-04-18T23:33:33.434Z,27.38
2023-04-18T23:36:00.239Z,28.90
2023-04-18T23:38:27.588Z,28.23
2023-04-18T23:40:54.489Z,29.08
2023-04-18T23:43:21.495Z,27.65
2023-04-18T23:45:48.375Z,29.17
2023-04-18T23:48:15.474Z,26.35
2023-04-18T23:50:46.519Z,28.63
2023-04-18T23:53:13.711Z,27.20
2023-04-18T23:55:40.578Z,23.90
2023-04-18T23:58:07.589Z,27.20
